»·PEaware :: N102KK KAJO-KVCV

N102KK :: KAJO-KVCV

FLIGHT INFORMATION

Flight Status: Arrived
Operator: Privately registered:
United States
More flights under this callsign
Pilot: Marnix T. (32373)
Aircraft: CESSNA 172 SKYHAWK
(C172)
More flights by this aircraft type
Origin: KAJO Corona Mun
United States
Destination: KVCV Socal Logistics
United States
More flights between these airports :: More routes between these airports
Route: PDZ V422 APLES
File this flight plan on PilotEdge
Remarks:
Altitude:
(Current/Filed)
9,000ft
Speed:
(Current/Filed)
120kts
Departed: 24-Nov-20 11:49 AM
Arrived: 24-Nov-20 01:04 PM
Distance/Time
Traveled:
43nm/1:15
Distance/Time
To Go:
Arrived

Flight Plot

Page will automatically refresh every two minutes.


Map Options




Map Legend


Flown Route
Filed Route
Departure Airport
Arrival Airport
Navaid (VOR, NDB)
Fix

Horizontal Profiles

Position Reports

Time Latitude Longitude Heading Altitude Ground
Speed
24-Nov-20 11:38 33.896876 -117.596512 268 537ft 0kts
24-Nov-20 11:39 33.896876 -117.596512 268 537ft 0kts
24-Nov-20 11:40 33.896876 -117.596512 268 537ft 0kts
24-Nov-20 11:41 33.896876 -117.596512 268 537ft 0kts
24-Nov-20 11:42 33.896876 -117.596512 268 537ft 0kts
24-Nov-20 11:43 33.897309 -117.598448 269 537ft 14kts
24-Nov-20 11:44 33.897268 -117.602418 268 537ft 9kts
24-Nov-20 11:45 33.897201 -117.606567 267 537ft 11kts
24-Nov-20 11:46 33.897377 -117.607482 341 537ft 0kts
24-Nov-20 11:47 33.897377 -117.607482 342 537ft 0kts
24-Nov-20 11:48 33.897589 -117.599083 91 802ft 62kts
24-Nov-20 11:49 33.901125 -117.573978 64 1713ft 81kts
24-Nov-20 11:50 33.910979 -117.549276 63 2691ft 83kts
24-Nov-20 11:51 33.921974 -117.524986 43 3604ft 84kts
24-Nov-20 11:52 33.939330 -117.505966 42 4463ft 85kts
24-Nov-20 11:53 33.951238 -117.516918 230 5251ft 86kts
24-Nov-20 11:54 33.928012 -117.520364 179 5973ft 91kts
24-Nov-20 11:55 33.917082 -117.547447 316 5996ft 117kts
24-Nov-20 11:56 33.944151 -117.534454 41 6000ft 117kts
24-Nov-20 11:57 33.959615 -117.503655 120 5995ft 117kts
24-Nov-20 11:58 33.935262 -117.509028 223 6551ft 89kts
24-Nov-20 11:59 33.917851 -117.530003 224 7338ft 89kts
24-Nov-20 12:00 33.926035 -117.547158 26 8076ft 90kts
24-Nov-20 12:01 33.945291 -117.527812 40 8784ft 91kts
24-Nov-20 12:02 33.954069 -117.500321 136 8997ft 115kts
24-Nov-20 12:03 33.928191 -117.516557 220 9000ft 117kts
24-Nov-20 12:04 33.920300 -117.547142 328 8996ft 117kts
24-Nov-20 12:05 33.942719 -117.526345 40 9126ft 116kts
24-Nov-20 12:06 33.968372 -117.502958 26 9125ft 116kts
24-Nov-20 12:07 33.996852 -117.483714 23 9127ft 119kts
24-Nov-20 12:08 34.026473 -117.465363 22 9128ft 120kts
24-Nov-20 12:09 34.056279 -117.447312 21 9131ft 120kts
24-Nov-20 12:10 34.086278 -117.429239 21 9133ft 120kts
24-Nov-20 12:11 34.116341 -117.411139 21 9136ft 121kts
24-Nov-20 12:12 34.146561 -117.392930 21 9137ft 121kts
24-Nov-20 12:13 34.176825 -117.374689 21 9137ft 121kts
24-Nov-20 12:14 34.207035 -117.356467 21 9138ft 121kts
24-Nov-20 12:15 34.237217 -117.338244 22 9137ft 121kts
24-Nov-20 12:16 34.267307 -117.320065 22 9146ft 120kts
24-Nov-20 12:17 34.297797 -117.301653 22 8999ft 130kts
24-Nov-20 12:18 34.328988 -117.282745 22 8980ft 122kts
24-Nov-20 12:19 34.359319 -117.264383 22 8986ft 121kts
24-Nov-20 12:20 34.389520 -117.246079 22 8989ft 121kts
24-Nov-20 12:21 34.419853 -117.228161 24 8991ft 121kts
24-Nov-20 12:22 34.449040 -117.209944 22 8715ft 118kts
24-Nov-20 12:23 34.478510 -117.192002 22 8215ft 119kts
24-Nov-20 12:24 34.507038 -117.174642 22 8005ft 106kts
24-Nov-20 12:25 34.534109 -117.158221 22 8016ft 110kts
24-Nov-20 12:26 34.563052 -117.146110 6 7899ft 115kts
24-Nov-20 12:27 34.595209 -117.142973 357 7495ft 114kts
24-Nov-20 12:29 34.626367 -117.146042 348 7092ft 112kts
24-Nov-20 12:30 34.656644 -117.154833 340 6689ft 112kts
24-Nov-20 12:31 34.684725 -117.168735 332 6627ft 109kts
24-Nov-20 12:32 34.710885 -117.187612 324 6626ft 110kts
24-Nov-20 12:33 34.734541 -117.211160 317 6626ft 110kts
24-Nov-20 12:34 34.755081 -117.238858 309 6626ft 110kts
24-Nov-20 12:35 34.771993 -117.270085 300 6626ft 111kts
24-Nov-20 12:36 34.784959 -117.304391 292 6413ft 113kts
24-Nov-20 12:37 34.793262 -117.339580 284 5735ft 101kts
24-Nov-20 12:38 34.795466 -117.372665 244 5224ft 99kts
24-Nov-20 12:39 34.769729 -117.376083 181 5011ft 90kts
24-Nov-20 12:40 34.743437 -117.377145 186 4515ft 97kts
24-Nov-20 12:41 34.717639 -117.379224 186 4326ft 89kts
24-Nov-20 12:42 34.692619 -117.381442 187 4234ft 94kts
24-Nov-20 12:43 34.667676 -117.383646 186 3673ft 84kts
24-Nov-20 12:44 34.644758 -117.385595 186 3389ft 81kts
24-Nov-20 12:45 34.619871 -117.387712 185 3502ft 102kts
24-Nov-20 12:46 34.597223 -117.399511 274 3988ft 88kts
24-Nov-20 12:47 34.607342 -117.425826 284 4525ft 87kts
24-Nov-20 12:47 34.610178 -117.449318 270 4933ft 89kts
24-Nov-20 12:48 34.609280 -117.479463 275 5396ft 89kts
24-Nov-20 12:49 34.613568 -117.508775 284 5819ft 88kts
24-Nov-20 12:50 34.618806 -117.539073 288 6028ft 99kts
24-Nov-20 12:51 34.626806 -117.571787 288 6026ft 101kts
24-Nov-20 12:52 34.632621 -117.604888 268 5989ft 97kts
24-Nov-20 12:53 34.618014 -117.625372 160 5459ft 103kts
24-Nov-20 12:54 34.610879 -117.594514 88 4946ft 100kts
24-Nov-20 12:55 34.610385 -117.560809 87 4443ft 100kts
24-Nov-20 12:56 34.603707 -117.527940 107 3939ft 102kts
24-Nov-20 12:57 34.592398 -117.493207 115 3928ft 110kts
24-Nov-20 12:58 34.578414 -117.465042 120 4035ft 89kts
24-Nov-20 12:59 34.565160 -117.439632 120 4036ft 89kts
24-Nov-20 13:00 34.561358 -117.410559 88 4036ft 87kts
24-Nov-20 13:01 34.566349 -117.387073 8 3722ft 70kts
24-Nov-20 13:02 34.584459 -117.386416 358 2876ft 48kts
24-Nov-20 13:03 34.592350 -117.386488 0 2860ft 26kts
24-Nov-20 13:04 34.594910 -117.384785 84 2855ft 0kts
24-Nov-20 13:05 34.594374 -117.383408 135 2856ft 20kts
24-Nov-20 13:06 34.590869 -117.379096 134 2866ft 16kts
24-Nov-20 13:07 34.589417 -117.376189 128 2868ft 8kts
24-Nov-20 13:08 34.588876 -117.375516 134 2868ft 0kts
24-Nov-20 13:09 34.588876 -117.375516 134 2868ft 0kts
24-Nov-20 13:10 34.588876 -117.375516 134 2868ft 0kts

Navigation Log

Ident Type
Flight plan parsing failed, navigation log unavailable